sensor_id;sensor_type;location;lat;lon;timestamp;temperature;humidity
65707;SHT31;52423;43.512;5.220;2022-11-14T00:01:57;11.87;82.98
65707;SHT31;52423;43.512;5.220;2022-11-14T00:04:22;11.87;82.51
65707;SHT31;52423;43.512;5.220;2022-11-14T00:06:47;11.82;82.49
65707;SHT31;52423;43.512;5.220;2022-11-14T00:09:13;11.79;82.40
65707;SHT31;52423;43.512;5.220;2022-11-14T00:11:38;11.84;82.39
65707;SHT31;52423;43.512;5.220;2022-11-14T00:14:03;11.87;82.33
65707;SHT31;52423;43.512;5.220;2022-11-14T00:16:29;11.84;82.31
65707;SHT31;52423;43.512;5.220;2022-11-14T00:18:54;11.86;82.35
65707;SHT31;52423;43.512;5.220;2022-11-14T00:21:19;11.86;82.00
65707;SHT31;52423;43.512;5.220;2022-11-14T00:23:45;11.87;81.90
65707;SHT31;52423;43.512;5.220;2022-11-14T00:26:10;11.97;81.63
65707;SHT31;52423;43.512;5.220;2022-11-14T00:28:36;11.93;81.43
65707;SHT31;52423;43.512;5.220;2022-11-14T00:31:01;11.84;81.13
65707;SHT31;52423;43.512;5.220;2022-11-14T00:33:26;11.86;81.37
65707;SHT31;52423;43.512;5.220;2022-11-14T00:35:53;11.95;81.59
65707;SHT31;52423;43.512;5.220;2022-11-14T00:38:19;11.93;82.00
65707;SHT31;52423;43.512;5.220;2022-11-14T00:40:44;11.87;81.03
65707;SHT31;52423;43.512;5.220;2022-11-14T00:43:09;11.87;81.43
65707;SHT31;52423;43.512;5.220;2022-11-14T00:45:35;11.74;81.38
65707;SHT31;52423;43.512;5.220;2022-11-14T00:48:00;11.74;81.88
65707;SHT31;52423;43.512;5.220;2022-11-14T00:50:25;11.82;81.94
65707;SHT31;52423;43.512;5.220;2022-11-14T00:52:51;11.67;81.58
65707;SHT31;52423;43.512;5.220;2022-11-14T00:55:16;11.73;81.87
65707;SHT31;52423;43.512;5.220;2022-11-14T00:57:41;11.77;81.29
65707;SHT31;52423;43.512;5.220;2022-11-14T01:00:08;11.76;80.65
65707;SHT31;52423;43.512;5.220;2022-11-14T01:02:34;11.86;80.90
65707;SHT31;52423;43.512;5.220;2022-11-14T01:04:59;11.83;80.33
65707;SHT31;52423;43.512;5.220;2022-11-14T01:07:26;11.80;80.31
65707;SHT31;52423;43.512;5.220;2022-11-14T01:09:51;11.76;80.87
65707;SHT31;52423;43.512;5.220;2022-11-14T01:12:17;11.74;80.54
65707;SHT31;52423;43.512;5.220;2022-11-14T01:14:42;11.66;80.73
65707;SHT31;52423;43.512;5.220;2022-11-14T01:17:07;11.59;80.89
65707;SHT31;52423;43.512;5.220;2022-11-14T01:19:33;11.59;81.31
65707;SHT31;52423;43.512;5.220;2022-11-14T01:21:58;11.53;81.34
65707;SHT31;52423;43.512;5.220;2022-11-14T01:24:24;11.39;81.42
65707;SHT31;52423;43.512;5.220;2022-11-14T01:26:49;11.42;81.88
65707;SHT31;52423;43.512;5.220;2022-11-14T01:29:14;11.33;81.57
65707;SHT31;52423;43.512;5.220;2022-11-14T01:31:40;11.31;82.15
65707;SHT31;52423;43.512;5.220;2022-11-14T01:34:06;11.29;81.50
65707;SHT31;52423;43.512;5.220;2022-11-14T01:36:31;11.36;82.05
65707;SHT31;52423;43.512;5.220;2022-11-14T01:38:57;11.32;81.98
65707;SHT31;52423;43.512;5.220;2022-11-14T01:41:22;11.35;82.02
65707;SHT31;52423;43.512;5.220;2022-11-14T01:43:48;11.33;81.50
65707;SHT31;52423;43.512;5.220;2022-11-14T01:46:15;11.32;81.96
65707;SHT31;52423;43.512;5.220;2022-11-14T01:48:50;11.29;81.65
65707;SHT31;52423;43.512;5.220;2022-11-14T01:51:26;11.25;81.53
65707;SHT31;52423;43.512;5.220;2022-11-14T01:53:55;11.21;81.71
65707;SHT31;52423;43.512;5.220;2022-11-14T01:56:25;11.21;81.92
65707;SHT31;52423;43.512;5.220;2022-11-14T01:58:57;11.28;81.79
65707;SHT31;52423;43.512;5.220;2022-11-14T02:01:24;11.32;81.63
65707;SHT31;52423;43.512;5.220;2022-11-14T02:03:52;11.26;81.80
65707;SHT31;52423;43.512;5.220;2022-11-14T02:06:19;11.29;81.96
65707;SHT31;52423;43.512;5.220;2022-11-14T02:08:45;11.31;81.97
65707;SHT31;52423;43.512;5.220;2022-11-14T02:11:12;11.38;81.50
65707;SHT31;52423;43.512;5.220;2022-11-14T02:13:37;11.35;81.23
65707;SHT31;52423;43.512;5.220;2022-11-14T02:16:04;11.38;81.37
65707;SHT31;52423;43.512;5.220;2022-11-14T02:18:29;11.40;81.51
65707;SHT31;52423;43.512;5.220;2022-11-14T02:20:55;11.46;80.84
65707;SHT31;52423;43.512;5.220;2022-11-14T02:23:25;11.49;81.10
65707;SHT31;52423;43.512;5.220;2022-11-14T02:25:51;11.55;80.79
65707;SHT31;52423;43.512;5.220;2022-11-14T02:28:16;11.62;80.52
65707;SHT31;52423;43.512;5.220;2022-11-14T02:30:44;11.67;80.52
65707;SHT31;52423;43.512;5.220;2022-11-14T02:33:10;11.73;80.48
65707;SHT31;52423;43.512;5.220;2022-11-14T02:35:35;11.73;80.30
65707;SHT31;52423;43.512;5.220;2022-11-14T02:38:00;11.83;79.97
65707;SHT31;52423;43.512;5.220;2022-11-14T02:40:26;11.89;79.61
65707;SHT31;52423;43.512;5.220;2022-11-14T02:42:51;11.93;79.68
65707;SHT31;52423;43.512;5.220;2022-11-14T02:45:17;11.91;79.73
65707;SHT31;52423;43.512;5.220;2022-11-14T02:47:43;11.91;79.71
65707;SHT31;52423;43.512;5.220;2022-11-14T02:50:09;11.94;79.87
65707;SHT31;52423;43.512;5.220;2022-11-14T02:52:34;11.94;79.60
65707;SHT31;52423;43.512;5.220;2022-11-14T02:54:59;11.93;79.78
65707;SHT31;52423;43.512;5.220;2022-11-14T02:57:25;12.04;79.79
65707;SHT31;52423;43.512;5.220;2022-11-14T02:59:50;12.08;79.75
65707;SHT31;52423;43.512;5.220;2022-11-14T03:02:15;12.13;79.46
65707;SHT31;52423;43.512;5.220;2022-11-14T03:04:41;12.17;79.56
65707;SHT31;52423;43.512;5.220;2022-11-14T03:07:06;12.25;79.51
65707;SHT31;52423;43.512;5.220;2022-11-14T03:09:32;12.31;79.26
65707;SHT31;52423;43.512;5.220;2022-11-14T03:11:57;12.40;79.33
65707;SHT31;52423;43.512;5.220;2022-11-14T03:14:22;12.46;79.02
65707;SHT31;52423;43.512;5.220;2022-11-14T03:16:48;12.48;78.88
65707;SHT31;52423;43.512;5.220;2022-11-14T03:19:13;12.52;78.24
65707;SHT31;52423;43.512;5.220;2022-11-14T03:21:38;12.52;78.23
65707;SHT31;52423;43.512;5.220;2022-11-14T03:24:04;12.54;78.57
65707;SHT31;52423;43.512;5.220;2022-11-14T03:26:29;12.42;78.34
65707;SHT31;52423;43.512;5.220;2022-11-14T03:28:55;12.55;78.62
65707;SHT31;52423;43.512;5.220;2022-11-14T03:31:20;12.61;78.92
65707;SHT31;52423;43.512;5.220;2022-11-14T03:33:46;12.62;78.79
65707;SHT31;52423;43.512;5.220;2022-11-14T03:36:11;12.61;79.17
65707;SHT31;52423;43.512;5.220;2022-11-14T03:38:36;12.66;79.08
65707;SHT31;52423;43.512;5.220;2022-11-14T03:41:02;12.69;78.93
65707;SHT31;52423;43.512;5.220;2022-11-14T03:43:33;12.71;78.42
65707;SHT31;52423;43.512;5.220;2022-11-14T03:46:00;12.76;78.39
65707;SHT31;52423;43.512;5.220;2022-11-14T03:48:26;12.72;78.53
65707;SHT31;52423;43.512;5.220;2022-11-14T03:50:51;12.71;78.81
65707;SHT31;52423;43.512;5.220;2022-11-14T03:53:17;12.71;78.68
65707;SHT31;52423;43.512;5.220;2022-11-14T03:55:42;12.69;78.55
65707;SHT31;52423;43.512;5.220;2022-11-14T03:58:08;12.63;78.66
65707;SHT31;52423;43.512;5.220;2022-11-14T04:00:33;12.62;79.17
65707;SHT31;52423;43.512;5.220;2022-11-14T04:02:59;12.62;78.46
65707;SHT31;52423;43.512;5.220;2022-11-14T04:05:24;12.65;78.12
65707;SHT31;52423;43.512;5.220;2022-11-14T04:07:50;12.68;78.43
65707;SHT31;52423;43.512;5.220;2022-11-14T04:10:15;12.66;77.78
65707;SHT31;52423;43.512;5.220;2022-11-14T04:12:46;12.69;78.59
65707;SHT31;52423;43.512;5.220;2022-11-14T04:15:11;12.81;78.69
65707;SHT31;52423;43.512;5.220;2022-11-14T04:17:37;12.83;78.25
65707;SHT31;52423;43.512;5.220;2022-11-14T04:20:02;12.91;77.60
65707;SHT31;52423;43.512;5.220;2022-11-14T04:22:28;12.99;77.63
65707;SHT31;52423;43.512;5.220;2022-11-14T04:24:53;13.04;77.43
65707;SHT31;52423;43.512;5.220;2022-11-14T04:27:18;13.03;77.60
65707;SHT31;52423;43.512;5.220;2022-11-14T04:29:43;13.12;77.90
65707;SHT31;52423;43.512;5.220;2022-11-14T04:32:09;13.16;77.42
65707;SHT31;52423;43.512;5.220;2022-11-14T04:34:34;13.14;77.06
65707;SHT31;52423;43.512;5.220;2022-11-14T04:37:00;13.23;77.00
65707;SHT31;52423;43.512;5.220;2022-11-14T04:39:25;13.28;76.70
65707;SHT31;52423;43.512;5.220;2022-11-14T04:41:50;13.34;76.63
65707;SHT31;52423;43.512;5.220;2022-11-14T04:44:16;13.36;76.24
65707;SHT31;52423;43.512;5.220;2022-11-14T04:46:41;13.37;76.30
65707;SHT31;52423;43.512;5.220;2022-11-14T04:49:06;13.36;76.65
65707;SHT31;52423;43.512;5.220;2022-11-14T04:51:32;13.36;76.60
65707;SHT31;52423;43.512;5.220;2022-11-14T04:53:57;13.44;75.96
65707;SHT31;52423;43.512;5.220;2022-11-14T04:56:22;13.53;75.42
65707;SHT31;52423;43.512;5.220;2022-11-14T04:58:50;13.58;75.41
65707;SHT31;52423;43.512;5.220;2022-11-14T05:01:15;13.53;75.63
65707;SHT31;52423;43.512;5.220;2022-11-14T05:03:40;13.50;75.78
65707;SHT31;52423;43.512;5.220;2022-11-14T05:06:06;13.51;75.27
65707;SHT31;52423;43.512;5.220;2022-11-14T05:08:32;13.53;74.88
65707;SHT31;52423;43.512;5.220;2022-11-14T05:10:58;13.43;75.24
65707;SHT31;52423;43.512;5.220;2022-11-14T05:13:23;13.47;75.27
65707;SHT31;52423;43.512;5.220;2022-11-14T05:15:48;13.60;75.10
65707;SHT31;52423;43.512;5.220;2022-11-14T05:18:14;13.60;74.57
65707;SHT31;52423;43.512;5.220;2022-11-14T05:20:39;13.60;75.06
65707;SHT31;52423;43.512;5.220;2022-11-14T05:23:05;13.68;74.08
65707;SHT31;52423;43.512;5.220;2022-11-14T05:25:30;13.77;73.52
65707;SHT31;52423;43.512;5.220;2022-11-14T05:27:55;13.82;73.93
65707;SHT31;52423;43.512;5.220;2022-11-14T05:30:21;13.92;73.09
65707;SHT31;52423;43.512;5.220;2022-11-14T05:32:46;13.97;73.15
65707;SHT31;52423;43.512;5.220;2022-11-14T05:35:12;13.94;73.05
65707;SHT31;52423;43.512;5.220;2022-11-14T05:37:37;14.00;73.50
65707;SHT31;52423;43.512;5.220;2022-11-14T05:40:04;14.01;72.71
65707;SHT31;52423;43.512;5.220;2022-11-14T06:04:28;13.85;73.74
65707;SHT31;52423;43.512;5.220;2022-11-14T06:06:54;13.86;74.04
65707;SHT31;52423;43.512;5.220;2022-11-14T06:09:19;13.94;73.04
65707;SHT31;52423;43.512;5.220;2022-11-14T06:11:44;13.97;73.45
65707;SHT31;52423;43.512;5.220;2022-11-14T06:14:10;13.97;73.76
65707;SHT31;52423;43.512;5.220;2022-11-14T06:16:35;14.04;73.06
65707;SHT31;52423;43.512;5.220;2022-11-14T06:19:00;14.05;73.47
65707;SHT31;52423;43.512;5.220;2022-11-14T06:21:26;14.09;72.80
65707;SHT31;52423;43.512;5.220;2022-11-14T06:23:51;14.06;72.87
65707;SHT31;52423;43.512;5.220;2022-11-14T06:26:23;14.11;72.56
65707;SHT31;52423;43.512;5.220;2022-11-14T06:28:49;14.19;72.38
65707;SHT31;52423;43.512;5.220;2022-11-14T06:31:16;14.19;72.74
65707;SHT31;52423;43.512;5.220;2022-11-14T06:33:42;14.21;71.66
65707;SHT31;52423;43.512;5.220;2022-11-14T06:36:08;14.23;72.04
65707;SHT31;52423;43.512;5.220;2022-11-14T06:38:35;14.21;72.28
65707;SHT31;52423;43.512;5.220;2022-11-14T06:41:04;14.23;72.33
65707;SHT31;52423;43.512;5.220;2022-11-14T06:43:38;14.25;71.69
65707;SHT31;52423;43.512;5.220;2022-11-14T06:46:04;14.28;72.08
65707;SHT31;52423;43.512;5.220;2022-11-14T06:48:30;14.32;72.03
65707;SHT31;52423;43.512;5.220;2022-11-14T06:50:57;14.37;71.76
65707;SHT31;52423;43.512;5.220;2022-11-14T06:53:23;14.40;71.22
65707;SHT31;52423;43.512;5.220;2022-11-14T06:56:06;14.39;71.60
65707;SHT31;52423;43.512;5.220;2022-11-14T06:58:37;14.37;71.89
65707;SHT31;52423;43.512;5.220;2022-11-14T07:01:10;14.44;71.88
65707;SHT31;52423;43.512;5.220;2022-11-14T07:03:36;14.39;72.18
65707;SHT31;52423;43.512;5.220;2022-11-14T07:06:03;14.36;72.26
65707;SHT31;52423;43.512;5.220;2022-11-14T07:08:28;14.28;72.84
65707;SHT31;52423;43.512;5.220;2022-11-14T07:11:09;14.33;72.88
65707;SHT31;52423;43.512;5.220;2022-11-14T07:13:35;14.30;72.79
65707;SHT31;52423;43.512;5.220;2022-11-14T07:16:01;14.21;73.06
65707;SHT31;52423;43.512;5.220;2022-11-14T07:18:31;14.28;72.47
65707;SHT31;52423;43.512;5.220;2022-11-14T07:21:02;14.26;73.02
65707;SHT31;52423;43.512;5.220;2022-11-14T07:23:28;14.26;73.44
65707;SHT31;52423;43.512;5.220;2022-11-14T07:25:53;14.23;72.94
65707;SHT31;52423;43.512;5.220;2022-11-14T07:28:19;14.25;73.45
65707;SHT31;52423;43.512;5.220;2022-11-14T07:30:44;14.29;73.16
65707;SHT31;52423;43.512;5.220;2022-11-14T07:33:09;14.29;72.86
65707;SHT31;52423;43.512;5.220;2022-11-14T07:35:38;14.33;72.68
65707;SHT31;52423;43.512;5.220;2022-11-14T07:38:03;14.28;72.81
65707;SHT31;52423;43.512;5.220;2022-11-14T07:40:29;14.28;72.61
65707;SHT31;52423;43.512;5.220;2022-11-14T07:42:58;14.23;72.48
65707;SHT31;52423;43.512;5.220;2022-11-14T07:45:24;14.29;72.70
65707;SHT31;52423;43.512;5.220;2022-11-14T07:47:53;14.25;73.09
65707;SHT31;52423;43.512;5.220;2022-11-14T07:50:19;14.26;72.92
65707;SHT31;52423;43.512;5.220;2022-11-14T07:52:49;14.25;73.36
65707;SHT31;52423;43.512;5.220;2022-11-14T07:55:15;14.30;72.51
65707;SHT31;52423;43.512;5.220;2022-11-14T07:57:40;14.28;72.78
65707;SHT31;52423;43.512;5.220;2022-11-14T08:00:06;14.40;71.64
65707;SHT31;52423;43.512;5.220;2022-11-14T08:02:32;14.39;71.51
65707;SHT31;52423;43.512;5.220;2022-11-14T08:04:57;14.49;71.18
65707;SHT31;52423;43.512;5.220;2022-11-14T08:07:22;14.53;71.27
65707;SHT31;52423;43.512;5.220;2022-11-14T08:09:48;14.60;70.14
65707;SHT31;52423;43.512;5.220;2022-11-14T08:12:13;14.62;70.60
65707;SHT31;52423;43.512;5.220;2022-11-14T08:14:38;14.60;70.79
65707;SHT31;52423;43.512;5.220;2022-11-14T08:17:04;14.66;70.10
65707;SHT31;52423;43.512;5.220;2022-11-14T08:19:30;14.67;70.32
65707;SHT31;52423;43.512;5.220;2022-11-14T08:21:55;14.67;70.46
65707;SHT31;52423;43.512;5.220;2022-11-14T08:24:21;14.63;70.23
65707;SHT31;52423;43.512;5.220;2022-11-14T08:26:46;14.69;69.72
65707;SHT31;52423;43.512;5.220;2022-11-14T08:29:11;14.64;70.64
65707;SHT31;52423;43.512;5.220;2022-11-14T08:31:37;14.70;70.03
65707;SHT31;52423;43.512;5.220;2022-11-14T08:34:02;14.74;69.51
65707;SHT31;52423;43.512;5.220;2022-11-14T08:36:27;14.79;69.73
65707;SHT31;52423;43.512;5.220;2022-11-14T08:38:53;14.76;70.02
65707;SHT31;52423;43.512;5.220;2022-11-14T08:41:18;14.87;69.12
65707;SHT31;52423;43.512;5.220;2022-11-14T08:43:43;14.83;69.29
65707;SHT31;52423;43.512;5.220;2022-11-14T08:46:09;14.81;69.64
65707;SHT31;52423;43.512;5.220;2022-11-14T08:48:34;14.84;69.41
65707;SHT31;52423;43.512;5.220;2022-11-14T08:51:04;14.84;68.91
65707;SHT31;52423;43.512;5.220;2022-11-14T08:53:30;14.91;69.05
65707;SHT31;52423;43.512;5.220;2022-11-14T08:55:55;14.94;69.12
65707;SHT31;52423;43.512;5.220;2022-11-14T08:58:20;14.95;68.23
65707;SHT31;52423;43.512;5.220;2022-11-14T09:00:46;15.00;68.72
65707;SHT31;52423;43.512;5.220;2022-11-14T09:03:11;15.00;68.85
65707;SHT31;52423;43.512;5.220;2022-11-14T09:05:41;14.98;68.66
65707;SHT31;52423;43.512;5.220;2022-11-14T09:08:06;14.98;68.85
65707;SHT31;52423;43.512;5.220;2022-11-14T09:10:33;15.03;68.89
65707;SHT31;52423;43.512;5.220;2022-11-14T09:12:59;15.07;68.90
65707;SHT31;52423;43.512;5.220;2022-11-14T09:15:26;15.12;68.53
65707;SHT31;52423;43.512;5.220;2022-11-14T09:17:53;15.03;69.01
65707;SHT31;52423;43.512;5.220;2022-11-14T09:20:19;15.07;68.56
65707;SHT31;52423;43.512;5.220;2022-11-14T09:22:45;15.11;69.04
65707;SHT31;52423;43.512;5.220;2022-11-14T09:25:10;15.12;68.38
65707;SHT31;52423;43.512;5.220;2022-11-14T09:27:36;15.14;68.64
65707;SHT31;52423;43.512;5.220;2022-11-14T09:30:01;15.11;68.64
65707;SHT31;52423;43.512;5.220;2022-11-14T09:32:27;15.05;69.32
65707;SHT31;52423;43.512;5.220;2022-11-14T09:34:52;15.10;69.11
65707;SHT31;52423;43.512;5.220;2022-11-14T09:37:17;15.11;69.24
65707;SHT31;52423;43.512;5.220;2022-11-14T09:39:43;15.12;68.99
65707;SHT31;52423;43.512;5.220;2022-11-14T09:47:15;15.21;69.12
65707;SHT31;52423;43.512;5.220;2022-11-14T09:49:48;15.20;69.32
65707;SHT31;52423;43.512;5.220;2022-11-14T09:54:57;15.22;69.22
65707;SHT31;52423;43.512;5.220;2022-11-14T09:57:24;15.27;69.27
65707;SHT31;52423;43.512;5.220;2022-11-14T09:59:50;15.22;69.52
65707;SHT31;52423;43.512;5.220;2022-11-14T10:10:48;15.35;68.80
65707;SHT31;52423;43.512;5.220;2022-11-14T10:13:35;15.35;68.61
65707;SHT31;52423;43.512;5.220;2022-11-14T10:16:13;15.38;68.97
65707;SHT31;52423;43.512;5.220;2022-11-14T10:26:59;15.51;68.20
65707;SHT31;52423;43.512;5.220;2022-11-14T10:35:03;15.59;68.25
65707;SHT31;52423;43.512;5.220;2022-11-14T10:46:12;15.75;67.98
65707;SHT31;52423;43.512;5.220;2022-11-14T10:48:43;15.82;68.34
65707;SHT31;52423;43.512;5.220;2022-11-14T10:51:43;15.89;66.97
65707;SHT31;52423;43.512;5.220;2022-11-14T10:54:20;15.92;66.93
65707;SHT31;52423;43.512;5.220;2022-11-14T10:56:52;16.03;67.02
65707;SHT31;52423;43.512;5.220;2022-11-14T10:59:18;16.07;66.68
65707;SHT31;52423;43.512;5.220;2022-11-14T11:04:25;16.10;67.49
65707;SHT31;52423;43.512;5.220;2022-11-14T11:06:53;16.13;66.97
65707;SHT31;52423;43.512;5.220;2022-11-14T11:09:22;16.14;66.50
65707;SHT31;52423;43.512;5.220;2022-11-14T11:12:08;16.10;67.06
65707;SHT31;52423;43.512;5.220;2022-11-14T11:14:38;16.20;66.15
65707;SHT31;52423;43.512;5.220;2022-11-14T11:17:22;16.25;66.59
65707;SHT31;52423;43.512;5.220;2022-11-14T11:19:48;16.34;66.56
65707;SHT31;52423;43.512;5.220;2022-11-14T11:22:42;16.33;66.61
65707;SHT31;52423;43.512;5.220;2022-11-14T11:25:23;16.38;66.37
65707;SHT31;52423;43.512;5.220;2022-11-14T11:28:03;16.40;65.57
65707;SHT31;52423;43.512;5.220;2022-11-14T11:30:29;16.38;66.29
65707;SHT31;52423;43.512;5.220;2022-11-14T11:32:54;16.44;66.18
65707;SHT31;52423;43.512;5.220;2022-11-14T11:35:20;16.43;66.39
65707;SHT31;52423;43.512;5.220;2022-11-14T11:37:51;16.44;66.83
65707;SHT31;52423;43.512;5.220;2022-11-14T11:40:22;16.45;66.15
65707;SHT31;52423;43.512;5.220;2022-11-14T11:42:56;16.53;65.69
65707;SHT31;52423;43.512;5.220;2022-11-14T11:45:23;16.55;66.49
65707;SHT31;52423;43.512;5.220;2022-11-14T11:48:03;16.58;65.67
65707;SHT31;52423;43.512;5.220;2022-11-14T11:50:32;16.67;65.94
65707;SHT31;52423;43.512;5.220;2022-11-14T11:53:30;16.69;65.98
65707;SHT31;52423;43.512;5.220;2022-11-14T11:56:00;16.74;66.01
65707;SHT31;52423;43.512;5.220;2022-11-14T12:01:34;16.81;65.20
65707;SHT31;52423;43.512;5.220;2022-11-14T12:04:00;16.78;66.01
65707;SHT31;52423;43.512;5.220;2022-11-14T12:06:26;16.82;66.39
65707;SHT31;52423;43.512;5.220;2022-11-14T12:09:17;16.84;66.44
65707;SHT31;52423;43.512;5.220;2022-11-14T12:11:50;16.81;66.77
65707;SHT31;52423;43.512;5.220;2022-11-14T12:14:43;16.91;65.86
65707;SHT31;52423;43.512;5.220;2022-11-14T12:20:28;16.98;67.05
65707;SHT31;52423;43.512;5.220;2022-11-14T12:23:07;17.02;66.32
65707;SHT31;52423;43.512;5.220;2022-11-14T12:25:56;17.05;65.76
65707;SHT31;52423;43.512;5.220;2022-11-14T12:31:11;17.02;67.26
65707;SHT31;52423;43.512;5.220;2022-11-14T12:33:43;16.98;66.34
65707;SHT31;52423;43.512;5.220;2022-11-14T12:36:10;16.99;66.45
65707;SHT31;52423;43.512;5.220;2022-11-14T12:38:47;16.95;66.65
65707;SHT31;52423;43.512;5.220;2022-11-14T12:41:27;17.01;67.70
65707;SHT31;52423;43.512;5.220;2022-11-14T12:47:18;17.05;67.63
65707;SHT31;52423;43.512;5.220;2022-11-14T12:58:06;17.12;66.42
65707;SHT31;52423;43.512;5.220;2022-11-14T13:11:41;17.03;68.19
65707;SHT31;52423;43.512;5.220;2022-11-14T13:14:26;17.03;67.50
65707;SHT31;52423;43.512;5.220;2022-11-14T13:20:31;16.89;68.47
65707;SHT31;52423;43.512;5.220;2022-11-14T13:33:44;16.86;68.27
65707;SHT31;52423;43.512;5.220;2022-11-14T13:50:24;16.92;68.82
65707;SHT31;52423;43.512;5.220;2022-11-14T13:52:50;16.95;68.80
65707;SHT31;52423;43.512;5.220;2022-11-14T13:55:31;16.88;68.66
65707;SHT31;52423;43.512;5.220;2022-11-14T14:03:43;16.82;68.76
65707;SHT31;52423;43.512;5.220;2022-11-14T14:31:18;16.48;72.27
65707;SHT31;52423;43.512;5.220;2022-11-14T14:33:50;16.43;73.49
65707;SHT31;52423;43.512;5.220;2022-11-14T14:38:48;16.30;73.16
65707;SHT31;52423;43.512;5.220;2022-11-14T14:41:15;16.27;74.70
65707;SHT31;52423;43.512;5.220;2022-11-14T14:43:49;16.21;74.35
65707;SHT31;52423;43.512;5.220;2022-11-14T14:46:14;16.27;72.92
65707;SHT31;52423;43.512;5.220;2022-11-14T14:48:41;16.30;72.83
65707;SHT31;52423;43.512;5.220;2022-11-14T14:51:12;16.30;72.96
65707;SHT31;52423;43.512;5.220;2022-11-14T14:53:38;16.35;72.66
65707;SHT31;52423;43.512;5.220;2022-11-14T14:56:06;16.35;72.09
65707;SHT31;52423;43.512;5.220;2022-11-14T14:58:41;16.38;71.57
65707;SHT31;52423;43.512;5.220;2022-11-14T15:01:35;16.41;72.08
65707;SHT31;52423;43.512;5.220;2022-11-14T15:04:06;16.40;72.30
65707;SHT31;52423;43.512;5.220;2022-11-14T15:21:15;16.23;72.52
65707;SHT31;52423;43.512;5.220;2022-11-14T15:23:41;16.17;73.33
65707;SHT31;52423;43.512;5.220;2022-11-14T15:26:16;16.18;73.47
65707;SHT31;52423;43.512;5.220;2022-11-14T15:28:43;16.23;72.84
65707;SHT31;52423;43.512;5.220;2022-11-14T15:31:17;16.24;72.65
65707;SHT31;52423;43.512;5.220;2022-11-14T15:33:43;16.23;72.94
65707;SHT31;52423;43.512;5.220;2022-11-14T15:36:11;16.24;73.34
65707;SHT31;52423;43.512;5.220;2022-11-14T15:38:37;16.20;73.19
65707;SHT31;52423;43.512;5.220;2022-11-14T15:42:53;16.21;73.07
65707;SHT31;52423;43.512;5.220;2022-11-14T15:45:28;16.25;72.05
65707;SHT31;52423;43.512;5.220;2022-11-14T15:47:58;16.23;72.84
65707;SHT31;52423;43.512;5.220;2022-11-14T15:50:32;16.30;72.29
65707;SHT31;52423;43.512;5.220;2022-11-14T15:53:01;16.27;72.73
65707;SHT31;52423;43.512;5.220;2022-11-14T15:55:27;16.25;72.50
65707;SHT31;52423;43.512;5.220;2022-11-14T15:57:53;16.30;72.63
65707;SHT31;52423;43.512;5.220;2022-11-14T16:00:19;16.25;72.94
65707;SHT31;52423;43.512;5.220;2022-11-14T16:02:55;16.21;73.05
65707;SHT31;52423;43.512;5.220;2022-11-14T16:05:27;16.20;73.31
65707;SHT31;52423;43.512;5.220;2022-11-14T16:07:53;16.23;72.90
65707;SHT31;52423;43.512;5.220;2022-11-14T16:10:21;16.20;73.30
65707;SHT31;52423;43.512;5.220;2022-11-14T16:12:46;16.18;73.12
65707;SHT31;52423;43.512;5.220;2022-11-14T16:15:12;16.20;73.31
65707;SHT31;52423;43.512;5.220;2022-11-14T16:17:40;16.14;73.41
65707;SHT31;52423;43.512;5.220;2022-11-14T16:20:12;16.12;74.00
65707;SHT31;52423;43.512;5.220;2022-11-14T16:22:41;16.10;73.46
65707;SHT31;52423;43.512;5.220;2022-11-14T16:27:46;16.07;74.05
65707;SHT31;52423;43.512;5.220;2022-11-14T16:30:14;16.06;73.54
65707;SHT31;52423;43.512;5.220;2022-11-14T16:32:40;16.09;74.79
65707;SHT31;52423;43.512;5.220;2022-11-14T16:37:37;15.90;76.30
65707;SHT31;52423;43.512;5.220;2022-11-14T16:40:02;15.87;76.38
65707;SHT31;52423;43.512;5.220;2022-11-14T16:42:28;15.83;76.44
65707;SHT31;52423;43.512;5.220;2022-11-14T16:45:01;15.83;76.70
65707;SHT31;52423;43.512;5.220;2022-11-14T16:47:27;15.75;77.39
65707;SHT31;52423;43.512;5.220;2022-11-14T16:49:52;15.72;77.57
65707;SHT31;52423;43.512;5.220;2022-11-14T16:52:18;15.63;78.33
65707;SHT31;52423;43.512;5.220;2022-11-14T16:54:44;15.58;77.66
65707;SHT31;52423;43.512;5.220;2022-11-14T16:57:09;15.59;78.38
65707;SHT31;52423;43.512;5.220;2022-11-14T16:59:35;15.46;78.67
65707;SHT31;52423;43.512;5.220;2022-11-14T17:02:00;15.45;78.84
65707;SHT31;52423;43.512;5.220;2022-11-14T17:04:26;15.46;79.75
65707;SHT31;52423;43.512;5.220;2022-11-14T17:06:52;15.28;80.42
65707;SHT31;52423;43.512;5.220;2022-11-14T17:09:17;15.21;81.31
65707;SHT31;52423;43.512;5.220;2022-11-14T17:11:42;15.24;81.83
65707;SHT31;52423;43.512;5.220;2022-11-14T17:14:09;15.20;82.46
65707;SHT31;52423;43.512;5.220;2022-11-14T17:16:34;15.05;82.19
65707;SHT31;52423;43.512;5.220;2022-11-14T17:19:00;15.03;82.16
65707;SHT31;52423;43.512;5.220;2022-11-14T17:21:25;15.00;82.04
65707;SHT31;52423;43.512;5.220;2022-11-14T17:23:53;14.98;82.22
65707;SHT31;52423;43.512;5.220;2022-11-14T17:26:18;15.03;81.55
65707;SHT31;52423;43.512;5.220;2022-11-14T17:28:44;15.00;82.24
65707;SHT31;52423;43.512;5.220;2022-11-14T17:31:10;14.98;82.07
65707;SHT31;52423;43.512;5.220;2022-11-14T17:33:36;15.00;82.50
65707;SHT31;52423;43.512;5.220;2022-11-14T17:36:07;14.98;82.12
65707;SHT31;52423;43.512;5.220;2022-11-14T17:38:34;14.98;82.08
65707;SHT31;52423;43.512;5.220;2022-11-14T17:41:00;15.00;82.69
65707;SHT31;52423;43.512;5.220;2022-11-14T17:43:25;14.91;83.24
65707;SHT31;52423;43.512;5.220;2022-11-14T17:45:57;14.90;83.38
65707;SHT31;52423;43.512;5.220;2022-11-14T17:48:23;14.90;83.37
65707;SHT31;52423;43.512;5.220;2022-11-14T17:50:49;14.87;83.29
65707;SHT31;52423;43.512;5.220;2022-11-14T17:53:15;14.87;83.56
65707;SHT31;52423;43.512;5.220;2022-11-14T17:55:40;14.77;83.56
65707;SHT31;52423;43.512;5.220;2022-11-14T17:58:06;14.79;84.21
65707;SHT31;52423;43.512;5.220;2022-11-14T18:00:31;14.73;84.20
65707;SHT31;52423;43.512;5.220;2022-11-14T18:02:57;14.81;84.04
65707;SHT31;52423;43.512;5.220;2022-11-14T18:05:22;14.73;85.00
65707;SHT31;52423;43.512;5.220;2022-11-14T18:07:48;14.70;85.18
65707;SHT31;52423;43.512;5.220;2022-11-14T18:10:13;14.69;86.31
65707;SHT31;52423;43.512;5.220;2022-11-14T18:12:39;14.62;86.81
65707;SHT31;52423;43.512;5.220;2022-11-14T18:15:05;14.62;85.91
65707;SHT31;52423;43.512;5.220;2022-11-14T18:17:30;14.63;86.23
65707;SHT31;52423;43.512;5.220;2022-11-14T18:19:56;14.57;86.46
65707;SHT31;52423;43.512;5.220;2022-11-14T18:22:24;14.60;86.53
65707;SHT31;52423;43.512;5.220;2022-11-14T18:24:51;14.60;86.82
65707;SHT31;52423;43.512;5.220;2022-11-14T18:27:16;14.55;87.26
65707;SHT31;52423;43.512;5.220;2022-11-14T18:29:42;14.52;87.65
65707;SHT31;52423;43.512;5.220;2022-11-14T18:32:07;14.50;88.25